Time;durP1;ratioP1;P1;durP2;ratioP2;P2;SDS_P1;SDS_P2;PMS_P1;PMS_P2;Temp;Humidity;BMP_temperature;BMP_pressure;BME280_temperature;BME280_humidity;BME280_pressure;Samples;Min_cycle;Max_cycle;Signal;HPM_P1;HPM_P2
2023/03/10 00:00:07;;;;;;;32.67;5.13;;;;;;;8.50;100.00;97982.78;5066615;28;20468;-77
2023/03/10 00:02:33;;;;;;;30.70;3.85;;;;;;;8.49;100.00;97992.22;5093233;27;20037;-76
2023/03/10 00:04:59;;;;;;;25.83;4.60;;;;;;;8.48;100.00;97987.84;5084692;27;20035;-76
2023/03/10 00:07:25;;;;;;;32.90;4.90;;;;;;;8.45;100.00;97988.53;5064037;28;20034;-76
2023/03/10 00:09:50;;;;;;;30.33;3.92;;;;;;;8.47;100.00;97991.78;5096735;27;20392;-77
2023/03/10 00:12:16;;;;;;;30.70;3.95;;;;;;;8.48;100.00;97996.13;5097882;28;20383;-76
2023/03/10 00:14:41;;;;;;;36.55;4.65;;;;;;;8.46;100.00;97982.63;5079524;28;20032;-76
2023/03/10 00:17:07;;;;;;;29.75;4.65;;;;;;;8.47;100.00;97977.94;5101387;27;20034;-76
2023/03/10 00:19:32;;;;;;;28.73;4.35;;;;;;;8.43;100.00;97966.72;5067518;27;20016;-76
2023/03/10 00:21:58;;;;;;;32.95;4.97;;;;;;;8.45;100.00;97988.53;5117995;27;20080;-76
2023/03/10 00:24:23;;;;;;;32.08;4.43;;;;;;;8.44;100.00;97986.88;5079901;28;20029;-76
2023/03/10 00:26:49;;;;;;;32.00;5.13;;;;;;;8.43;100.00;97988.06;5110366;28;20031;-76
2023/03/10 00:29:15;;;;;;;26.88;4.90;;;;;;;8.44;100.00;97987.72;5097310;27;20161;-76
2023/03/10 00:31:40;;;;;;;32.55;4.78;;;;;;;8.40;100.00;97989.53;5090643;28;20096;-76
2023/03/10 00:34:06;;;;;;;27.48;4.20;;;;;;;8.42;100.00;97992.78;5094270;28;20034;-76
2023/03/10 00:36:31;;;;;;;31.40;5.28;;;;;;;8.40;100.00;97995.06;5084279;27;20502;-76
2023/03/10 00:38:59;;;;;;;32.90;5.43;;;;;;;8.38;100.00;98002.06;5083887;27;20110;-76
2023/03/10 00:41:26;;;;;;;27.63;4.22;;;;;;;8.40;100.00;98003.38;5089343;27;20046;-76
2023/03/10 00:43:52;;;;;;;30.65;4.53;;;;;;;8.41;100.00;98001.41;5119993;27;20552;-76
2023/03/10 00:46:17;;;;;;;36.42;5.22;;;;;;;8.38;100.00;98007.59;5080273;28;20052;-76
2023/03/10 00:48:43;;;;;;;33.33;4.93;;;;;;;8.40;100.00;98013.63;5100809;27;20106;-76
2023/03/10 00:51:08;;;;;;;25.70;4.50;;;;;;;8.37;100.00;98028.09;5100823;27;20039;-76
2023/03/10 00:53:36;;;;;;;35.65;4.75;;;;;;;8.34;100.00;98015.78;5099929;27;20023;-76
2023/03/10 00:56:21;;;;;;;28.08;4.63;;;;;;;8.34;100.00;98013.00;5084099;28;20039;-76
2023/03/10 00:58:50;;;;;;;31.63;4.30;;;;;;;8.34;100.00;98010.25;5100618;28;20035;-76
2023/03/10 01:01:17;;;;;;;26.40;3.67;;;;;;;8.30;100.00;98012.06;5100883;28;20031;-76
2023/03/10 01:03:43;;;;;;;23.55;3.60;;;;;;;8.28;100.00;98009.63;5070267;28;20027;-76
2023/03/10 01:06:09;;;;;;;22.42;3.05;;;;;;;8.32;100.00;98008.97;5100058;28;20030;-76
2023/03/10 01:08:34;;;;;;;22.20;3.58;;;;;;;8.31;100.00;98007.34;5087862;28;20015;-76
2023/03/10 01:11:00;;;;;;;26.27;3.70;;;;;;;8.26;100.00;98031.28;5104446;28;20019;-76
2023/03/10 01:13:25;;;;;;;16.63;3.42;;;;;;;8.28;100.00;98036.50;5088068;28;20034;-76
2023/03/10 01:15:51;;;;;;;26.23;3.92;;;;;;;8.27;100.00;98043.16;5103756;28;20028;-76
2023/03/10 01:18:17;;;;;;;29.15;4.38;;;;;;;8.22;100.00;98048.91;5081546;28;20039;-76
2023/03/10 01:20:42;;;;;;;29.67;3.85;;;;;;;8.25;100.00;98037.19;5096727;28;20028;-76
2023/03/10 01:23:15;;;;;;;21.95;2.88;;;;;;;8.24;100.00;98038.31;5100636;28;20033;-76
2023/03/10 01:25:41;;;;;;;22.10;3.25;;;;;;;8.21;100.00;98053.59;5083324;28;20034;-76
2023/03/10 01:28:07;;;;;;;19.42;3.00;;;;;;;8.19;100.00;98044.88;5083505;28;20023;-76
2023/03/10 01:30:32;;;;;;;20.55;3.10;;;;;;;8.17;100.00;98047.16;5080146;28;20106;-76
2023/03/10 01:32:58;;;;;;;19.42;2.97;;;;;;;8.16;100.00;98053.84;5104755;28;20039;-76
2023/03/10 01:35:23;;;;;;;21.20;2.90;;;;;;;8.13;100.00;98040.66;5082175;28;20034;-76
2023/03/10 01:37:49;;;;;;;14.77;2.53;;;;;;;8.15;100.00;98048.63;5104280;27;20022;-76
2023/03/10 01:40:17;;;;;;;19.20;2.80;;;;;;;8.14;100.00;98053.34;5104156;27;20019;-76
2023/03/10 01:42:43;;;;;;;19.38;3.22;;;;;;;8.13;100.00;98040.66;5092039;28;20070;-76
2023/03/10 01:45:10;;;;;;;20.60;2.95;;;;;;;8.14;100.00;98041.50;5085151;27;20097;-76
2023/03/10 01:47:35;;;;;;;19.67;3.22;;;;;;;8.09;100.00;98044.47;5100611;28;20122;-76
2023/03/10 01:50:02;;;;;;;17.10;3.05;;;;;;;8.10;100.00;98057.94;5092050;27;20076;-76
2023/03/10 01:52:29;;;;;;;20.52;3.17;;;;;;;8.10;100.00;98057.94;5103778;27;20023;-76
2023/03/10 01:54:59;;;;;;;17.05;2.22;;;;;;;8.07;100.00;98055.84;5070102;27;20048;-76
2023/03/10 01:57:36;;;;;;;18.70;2.90;;;;;;;8.06;100.00;98063.34;5103708;27;20080;-76
2023/03/10 02:00:10;;;;;;;14.30;2.35;;;;;;;8.05;100.00;98061.72;5100370;28;20028;-76
2023/03/10 02:02:35;;;;;;;16.25;2.10;;;;;;;8.04;100.00;98068.38;5088832;27;20497;-76
2023/03/10 02:05:01;;;;;;;19.27;2.70;;;;;;;8.02;100.00;98075.38;5086934;27;20035;-76
2023/03/10 02:07:27;;;;;;;13.68;2.03;;;;;;;7.98;100.00;98066.97;5067019;28;20035;-76
2023/03/10 02:09:53;;;;;;;12.45;1.75;;;;;;;7.99;100.00;98067.78;5084952;27;20057;-76
2023/03/10 02:12:18;;;;;;;8.75;1.40;;;;;;;7.96;100.00;98071.22;5086766;27;20493;-76
2023/03/10 02:14:44;;;;;;;11.65;1.83;;;;;;;7.96;100.00;98068.44;5103508;27;20387;-76
2023/03/10 02:17:12;;;;;;;11.70;1.55;;;;;;;7.95;100.00;98062.13;5086397;27;20061;-76
2023/03/10 02:19:45;;;;;;;14.55;1.70;;;;;;;7.96;100.00;98077.53;5099967;28;20024;-76
2023/03/10 02:22:11;;;;;;;10.63;2.33;;;;;;;7.93;100.00;98067.16;5103529;27;20503;-76
2023/03/10 02:24:53;;;;;;;10.68;1.65;;;;;;;7.94;100.00;98076.25;5099870;28;20027;-76
2023/03/10 02:27:23;;;;;;;11.80;1.60;;;;;;;7.94;100.00;98070.72;5082895;27;20027;-76
2023/03/10 02:30:05;;;;;;;11.07;1.48;;;;;;;7.92;100.00;98076.63;5103381;27;20027;-76
2023/03/10 02:32:33;;;;;;;11.32;1.48;;;;;;;7.90;100.00;98069.78;5107161;27;20034;-76
2023/03/10 02:34:58;;;;;;;9.55;1.33;;;;;;;7.88;100.00;98074.84;5103659;27;20066;-76
2023/03/10 02:37:29;;;;;;;6.35;1.25;;;;;;;7.84;100.00;98089.34;5099668;28;20023;-76
2023/03/10 02:39:55;;;;;;;6.40;1.60;;;;;;;7.86;100.00;98082.69;5082270;28;20035;-76
2023/03/10 02:42:22;;;;;;;8.15;1.05;;;;;;;7.86;100.00;98064.13;5089143;28;20034;-76
2023/03/10 02:44:48;;;;;;;10.85;1.70;;;;;;;7.86;100.00;98085.44;5094676;27;20038;-76
2023/03/10 02:47:13;;;;;;;11.05;1.60;;;;;;;7.84;100.00;98107.88;5100989;27;20047;-76
2023/03/10 02:49:39;;;;;;;8.38;1.17;;;;;;;7.82;100.00;98091.63;5099757;28;20020;-76
2023/03/10 02:52:09;;;;;;;8.27;1.40;;;;;;;7.81;100.00;98095.53;5081313;27;20643;-76
2023/03/10 02:54:34;;;;;;;10.38;1.52;;;;;;;7.82;100.00;98099.91;5103767;27;20102;-76
2023/03/10 02:57:00;;;;;;;8.93;1.45;;;;;;;7.81;100.00;98127.88;5101895;27;20038;-76
2023/03/10 02:59:25;;;;;;;8.90;1.45;;;;;;;7.82;100.00;98113.72;5086378;27;20092;-76
2023/03/10 03:01:51;;;;;;;8.40;1.60;;;;;;;7.79;100.00;98117.16;5086216;27;20022;-76
2023/03/10 03:04:16;;;;;;;7.32;0.95;;;;;;;7.79;100.00;98136.50;5099787;28;20501;-76
2023/03/10 03:06:42;;;;;;;8.02;1.30;;;;;;;7.79;100.00;98125.44;5065306;28;20027;-76
2023/03/10 03:09:07;;;;;;;7.60;1.23;;;;;;;7.77;100.00;98132.44;5086244;27;20031;-77
2023/03/10 03:11:33;;;;;;;6.63;1.20;;;;;;;7.76;100.00;98130.84;5099697;28;20035;-77
2023/03/10 03:13:58;;;;;;;9.48;1.63;;;;;;;7.76;100.00;98134.41;5086217;27;20030;-76
2023/03/10 03:16:24;;;;;;;12.35;1.70;;;;;;;7.77;100.00;98143.50;5069029;27;20023;-77
2023/03/10 03:18:49;;;;;;;7.40;1.10;;;;;;;7.76;100.00;98153.75;5083826;27;20038;-77
2023/03/10 03:21:16;;;;;;;7.78;1.33;;;;;;;7.75;100.00;98141.09;5068921;27;20034;-76
2023/03/10 03:23:42;;;;;;;9.77;1.30;;;;;;;7.78;100.00;98156.19;5102765;28;20028;-77
2023/03/10 03:26:17;;;;;;;6.78;1.80;;;;;;;7.76;100.00;98178.63;5102977;28;20080;-77
2023/03/10 03:28:44;;;;;;;5.97;1.45;;;;;;;7.78;100.00;98179.09;5106787;27;20031;-76
2023/03/10 03:31:27;;;;;;;11.52;1.50;;;;;;;7.74;100.00;98182.84;5100614;28;20055;-76
2023/03/10 03:33:53;;;;;;;6.57;1.25;;;;;;;7.76;100.00;98175.84;5088190;27;20019;-77
2023/03/10 03:36:18;;;;;;;5.93;1.33;;;;;;;7.76;100.00;98197.16;5067860;28;20094;-77
2023/03/10 03:38:44;;;;;;;5.45;1.17;;;;;;;7.75;100.00;98193.59;5097773;27;20034;-76
2023/03/10 03:41:09;;;;;;;3.90;1.23;;;;;;;7.76;100.00;98208.19;5104877;27;20052;-76
2023/03/10 03:43:35;;;;;;;4.10;0.93;;;;;;;7.75;100.00;98212.13;5087977;27;20027;-77
2023/03/10 03:46:00;;;;;;;8.45;1.40;;;;;;;7.74;100.00;98221.53;5081661;28;20061;-77
2023/03/10 03:48:26;;;;;;;4.47;1.17;;;;;;;7.74;100.00;98227.06;5096574;27;20024;-76
2023/03/10 03:50:51;;;;;;;5.72;1.20;;;;;;;7.73;100.00;98226.25;5068602;27;20019;-76
2023/03/10 03:53:17;;;;;;;4.90;0.88;;;;;;;7.73;100.00;98226.25;5090284;27;20019;-77
2023/03/10 03:55:44;;;;;;;5.40;0.90;;;;;;;7.75;100.00;98246.09;5098944;28;20056;-76
2023/03/10 03:58:09;;;;;;;4.93;0.98;;;;;;;7.75;100.00;98254.38;5079424;28;20032;-76
2023/03/10 04:00:35;;;;;;;3.83;0.98;;;;;;;7.73;100.00;98253.88;5084669;27;20039;-76
2023/03/10 04:03:01;;;;;;;4.85;0.98;;;;;;;7.72;100.00;98266.09;5085066;27;20697;-76
2023/03/10 04:05:26;;;;;;;3.67;1.10;;;;;;;7.71;100.00;98278.25;5102237;27;20050;-76
2023/03/10 04:07:52;;;;;;;3.13;1.10;;;;;;;7.74;100.00;98255.50;5085122;27;21509;-77
2023/03/10 04:10:19;;;;;;;3.00;1.30;;;;;;;7.75;100.00;98286.72;5101364;27;20039;-76
2023/03/10 04:12:45;;;;;;;1.90;0.90;;;;;;;7.74;100.00;98304.41;5084622;27;20031;-76
2023/03/10 04:15:10;;;;;;;3.00;1.25;;;;;;;7.74;100.00;98294.16;5098232;28;20036;-77
2023/03/10 04:17:36;;;;;;;3.67;1.10;;;;;;;7.74;100.00;98312.72;5081384;27;20027;-76
2023/03/10 04:20:04;;;;;;;4.60;1.15;;;;;;;7.71;100.00;98311.41;5075197;28;20058;-77
2023/03/10 04:22:29;;;;;;;3.70;1.15;;;;;;;7.71;100.00;98328.00;5082172;27;20035;-77
2023/03/10 04:24:55;;;;;;;3.95;1.17;;;;;;;7.72;100.00;98337.91;5098187;28;20685;-77
2023/03/10 04:27:20;;;;;;;3.08;1.20;;;;;;;7.70;100.00;98348.47;5082258;27;20114;-77
2023/03/10 04:29:46;;;;;;;3.60;1.30;;;;;;;7.71;100.00;98361.16;5085592;27;20031;-77
2023/03/10 04:32:11;;;;;;;3.97;1.38;;;;;;;7.71;100.00;98366.66;5085047;27;20027;-77
2023/03/10 04:34:37;;;;;;;4.07;1.33;;;;;;;7.69;100.00;98374.50;5082559;28;20028;-77
2023/03/10 04:37:02;;;;;;;1.55;1.25;;;;;;;7.71;100.00;98387.97;5068778;27;20035;-77
2023/03/10 04:39:28;;;;;;;2.83;1.65;;;;;;;7.69;100.00;98387.47;5085026;27;20110;-77
2023/03/10 04:41:53;;;;;;;3.67;1.80;;;;;;;7.70;100.00;98395.44;5076337;27;22192;-77
2023/03/10 04:44:19;;;;;;;6.28;1.83;;;;;;;7.70;100.00;98409.25;5101544;27;20027;-77
2023/03/10 04:46:44;;;;;;;3.38;1.98;;;;;;;7.68;100.00;98419.00;5068285;27;20039;-77
2023/03/10 04:49:10;;;;;;;5.72;2.05;;;;;;;7.68;100.00;98441.94;5091879;28;20039;-77
2023/03/10 04:51:35;;;;;;;3.35;1.27;;;;;;;7.67;100.00;98454.13;5049596;28;20028;-77
2023/03/10 04:54:01;;;;;;;3.85;1.65;;;;;;;7.66;100.00;98460.81;5056103;27;20581;-77
2023/03/10 04:56:26;;;;;;;4.10;1.20;;;;;;;7.63;100.00;98480.75;5045864;28;20484;-77
2023/03/10 04:58:52;;;;;;;6.70;1.38;;;;;;;7.63;100.00;98491.00;5086004;28;20031;-76
2023/03/10 05:01:17;;;;;;;5.38;1.40;;;;;;;7.60;100.00;98489.69;5045131;28;20039;-76
2023/03/10 05:03:43;;;;;;;6.13;1.40;;;;;;;7.62;100.00;98506.78;5055500;28;20023;-76
2023/03/10 05:06:14;;;;;;;7.90;1.60;;;;;;;7.60;100.00;98515.41;5100643;28;20027;-76
2023/03/10 05:08:39;;;;;;;9.65;1.27;;;;;;;7.54;100.00;98491.00;5081081;28;20023;-76
2023/03/10 05:11:06;;;;;;;9.48;1.63;;;;;;;7.50;100.00;98537.00;5070969;28;20039;-76
2023/03/10 05:13:31;;;;;;;11.65;1.70;;;;;;;7.48;100.00;98526.25;5094301;27;20019;-76
2023/03/10 05:15:57;;;;;;;8.52;1.67;;;;;;;7.45;100.00;98548.19;5105167;27;20134;-76
2023/03/10 05:18:22;;;;;;;9.57;2.47;;;;;;;7.43;100.00;98561.50;5071126;27;20023;-76
2023/03/10 05:20:55;;;;;;;16.52;2.38;;;;;;;7.37;100.00;98561.63;5104298;28;20062;-76
2023/03/10 05:23:20;;;;;;;12.15;2.22;;;;;;;7.30;100.00;98552.19;5078464;27;20041;-76
2023/03/10 05:25:46;;;;;;;8.88;2.17;;;;;;;7.30;100.00;98583.41;5087427;27;20042;-76
2023/03/10 05:28:11;;;;;;;11.98;2.45;;;;;;;7.29;100.00;98591.97;5087816;27;20487;-76
2023/03/10 05:30:37;;;;;;;14.27;2.08;;;;;;;7.27;100.00;98595.09;5084698;27;20039;-76
2023/03/10 05:33:02;;;;;;;13.43;2.33;;;;;;;7.26;100.00;98610.00;5052437;28;20472;-76
2023/03/10 05:35:28;;;;;;;13.35;2.08;;;;;;;7.22;100.00;98609.03;5083247;27;20037;-76
2023/03/10 05:37:53;;;;;;;8.93;1.80;;;;;;;7.19;100.00;98630.91;5075835;28;20051;-76
2023/03/10 05:40:19;;;;;;;15.02;2.35;;;;;;;7.15;100.00;98619.69;5083180;27;20065;-76
2023/03/10 05:42:45;;;;;;;8.50;2.25;;;;;;;7.14;100.00;98640.97;5084865;28;20380;-76
2023/03/10 05:45:11;;;;;;;13.20;2.28;;;;;;;7.13;100.00;98649.56;5064210;27;20030;-76
2023/03/10 05:47:36;;;;;;;12.75;2.63;;;;;;;7.11;100.00;98657.34;5088835;27;20051;-76
2023/03/10 05:50:02;;;;;;;15.18;2.78;;;;;;;7.06;100.00;98671.28;5103102;27;20023;-76
2023/03/10 05:52:27;;;;;;;14.57;2.55;;;;;;;7.05;100.00;98675.16;5101274;27;20033;-76
2023/03/10 05:54:53;;;;;;;14.25;2.75;;;;;;;6.99;100.00;98682.75;5091173;27;20031;-76
2023/03/10 05:57:18;;;;;;;16.75;2.67;;;;;;;7.01;100.00;98699.81;5083147;28;20023;-76
2023/03/10 05:59:44;;;;;;;14.20;2.33;;;;;;;6.97;100.00;98703.56;5103117;27;20034;-76
2023/03/10 06:02:09;;;;;;;14.93;2.30;;;;;;;6.96;100.00;98704.66;5106402;27;20100;-76
2023/03/10 06:04:35;;;;;;;15.77;2.33;;;;;;;6.92;100.00;98685.97;5087043;27;20055;-76
2023/03/10 06:07:00;;;;;;;15.95;3.70;;;;;;;6.94;100.00;98722.38;5083614;28;20094;-76
2023/03/10 06:09:27;;;;;;;16.45;3.00;;;;;;;6.92;100.00;98727.38;5086590;27;20034;-76
2023/03/10 06:11:52;;;;;;;12.95;2.85;;;;;;;6.89;100.00;98739.03;5104166;27;20031;-76
2023/03/10 06:14:18;;;;;;;12.73;2.80;;;;;;;6.88;100.00;98726.38;5068088;27;20016;-76
2023/03/10 06:16:49;;;;;;;19.75;2.78;;;;;;;6.83;100.00;98740.28;5083436;28;20046;-76
2023/03/10 06:19:18;;;;;;;15.40;2.38;;;;;;;6.82;100.00;98765.44;5101288;27;20160;-76
2023/03/10 06:21:43;;;;;;;14.18;2.63;;;;;;;6.80;100.00;98773.19;5082445;28;20080;-76
2023/03/10 06:24:09;;;;;;;20.55;2.90;;;;;;;6.80;100.00;98785.06;5103465;27;20027;-76
2023/03/10 06:26:34;;;;;;;22.58;2.47;;;;;;;6.78;100.00;98792.84;5103839;27;20051;-76
2023/03/10 06:29:00;;;;;;;14.82;2.63;;;;;;;6.72;100.00;98805.13;5102942;27;20035;-76
2023/03/10 06:31:25;;;;;;;19.30;2.63;;;;;;;6.78;100.00;98819.63;5100514;27;20048;-76
2023/03/10 06:33:51;;;;;;;16.00;2.35;;;;;;;6.76;100.00;98821.84;5086423;27;20015;-76
2023/03/10 06:36:17;;;;;;;17.77;2.58;;;;;;;6.72;100.00;98838.22;5103166;27;20031;-76
2023/03/10 06:38:42;;;;;;;14.55;2.35;;;;;;;6.74;100.00;98840.66;5084543;27;20032;-76
2023/03/10 06:41:08;;;;;;;21.23;2.53;;;;;;;6.74;100.00;98852.50;5105724;27;20027;-76
2023/03/10 06:43:34;;;;;;;14.65;2.72;;;;;;;6.66;100.00;98848.56;5102553;27;20067;-76
2023/03/10 06:46:02;;;;;;;18.85;2.75;;;;;;;6.68;100.00;98862.03;5064212;28;20113;-76
2023/03/10 06:48:28;;;;;;;20.52;2.90;;;;;;;6.66;100.00;98858.78;5031985;28;20028;-76
2023/03/10 06:50:53;;;;;;;22.35;3.15;;;;;;;6.67;100.00;98879.72;5062457;28;20534;-76
2023/03/10 06:53:19;;;;;;;19.55;3.72;;;;;;;6.63;100.00;98885.03;5059824;28;20372;-76
2023/03/10 06:55:55;;;;;;;20.80;3.08;;;;;;;6.63;100.00;98900.75;5065828;28;20024;-76
2023/03/10 06:58:21;;;;;;;20.10;2.92;;;;;;;6.58;100.00;98893.41;5070479;28;20428;-75
2023/03/10 07:00:46;;;;;;;26.73;3.28;;;;;;;6.60;100.00;98912.41;5065967;28;20031;-76
2023/03/10 07:03:12;;;;;;;22.70;3.88;;;;;;;6.60;100.00;98915.16;5082277;28;20023;-76
2023/03/10 07:05:37;;;;;;;19.58;3.03;;;;;;;6.62;100.00;98943.25;5065886;28;20031;-76
2023/03/10 07:08:03;;;;;;;21.67;2.90;;;;;;;6.58;100.00;98936.72;5082574;28;20038;-76
2023/03/10 07:10:28;;;;;;;19.63;2.65;;;;;;;6.53;100.00;98918.34;5078584;28;20055;-76
2023/03/10 07:12:57;;;;;;;16.17;2.97;;;;;;;6.55;100.00;98935.41;5065640;28;20035;-76
2023/03/10 07:15:23;;;;;;;19.17;3.65;;;;;;;6.51;100.00;98947.34;5080055;28;20496;-76
2023/03/10 07:17:48;;;;;;;15.77;2.58;;;;;;;6.51;100.00;98948.16;5062014;28;20028;-76
2023/03/10 07:20:14;;;;;;;17.88;2.80;;;;;;;6.43;100.00;98957.94;5091329;28;20028;-76
2023/03/10 07:22:39;;;;;;;20.73;2.25;;;;;;;6.47;100.00;98956.22;5098781;28;20027;-77
2023/03/10 07:25:06;;;;;;;21.85;3.20;;;;;;;6.48;100.00;98977.16;5045753;28;20020;-76
2023/03/10 07:27:31;;;;;;;19.65;3.20;;;;;;;6.49;100.00;98978.81;5065224;28;20035;-76
2023/03/10 07:29:57;;;;;;;28.85;3.47;;;;;;;6.52;100.00;98988.41;5082208;28;20023;-76
2023/03/10 07:32:22;;;;;;;20.48;3.75;;;;;;;6.49;100.00;98989.84;5085500;28;20028;-76
2023/03/10 07:34:49;;;;;;;20.48;2.55;;;;;;;6.51;100.00;98985.94;5045632;28;20028;-76
2023/03/10 07:37:15;;;;;;;16.05;2.88;;;;;;;6.54;100.00;99018.44;5096080;28;20075;-76
2023/03/10 07:39:40;;;;;;;14.60;2.50;;;;;;;6.45;100.00;99021.88;5072044;28;20032;-76
2023/03/10 07:42:06;;;;;;;20.30;2.70;;;;;;;6.49;100.00;99011.91;5078314;28;20040;-76
2023/03/10 07:44:32;;;;;;;16.00;2.53;;;;;;;6.53;100.00;99038.88;5065181;28;20028;-76
2023/03/10 07:46:57;;;;;;;15.15;3.00;;;;;;;6.54;100.00;99054.28;5077681;27;20051;-76
2023/03/10 07:49:22;;;;;;;14.73;2.83;;;;;;;6.53;100.00;99060.94;5100153;27;20035;-76
2023/03/10 07:51:48;;;;;;;15.02;2.45;;;;;;;6.55;100.00;99042.16;5101726;27;20019;-76
2023/03/10 07:54:13;;;;;;;19.63;3.28;;;;;;;6.60;100.00;99072.38;5103047;27;20022;-76
2023/03/10 07:56:39;;;;;;;25.73;2.67;;;;;;;6.61;100.00;99090.59;5072309;27;20079;-76
2023/03/10 07:59:04;;;;;;;19.88;3.40;;;;;;;6.62;100.00;99098.56;5085149;27;20584;-76
2023/03/10 08:01:30;;;;;;;19.98;3.45;;;;;;;6.66;100.00;99102.34;5084491;27;20047;-76
2023/03/10 08:03:56;;;;;;;22.67;3.40;;;;;;;6.70;100.00;99106.13;5098315;28;20031;-76
2023/03/10 08:06:23;;;;;;;22.00;3.20;;;;;;;6.77;100.00;99121.47;5115513;27;20031;-76
2023/03/10 08:08:49;;;;;;;22.83;3.10;;;;;;;6.78;100.00;99118.44;5101962;27;20440;-76
2023/03/10 08:11:14;;;;;;;17.60;2.78;;;;;;;6.81;100.00;99123.34;5120383;27;20023;-76
2023/03/10 08:13:40;;;;;;;20.05;3.50;;;;;;;6.85;100.00;99132.66;5122569;27;20019;-76
2023/03/10 08:16:06;;;;;;;17.27;2.85;;;;;;;6.90;100.00;99149.09;5105544;27;20034;-76
2023/03/10 08:18:31;;;;;;;16.17;2.88;;;;;;;6.91;100.00;99161.81;5075222;28;20023;-76
2023/03/10 08:20:57;;;;;;;19.17;3.33;;;;;;;6.99;100.00;99151.16;5054666;28;20026;-76
2023/03/10 08:23:23;;;;;;;14.63;3.08;;;;;;;7.01;100.00;99171.84;5069979;27;20079;-76
2023/03/10 08:25:48;;;;;;;18.42;2.60;;;;;;;7.03;100.00;99164.06;5083324;28;20077;-76
2023/03/10 08:28:14;;;;;;;20.42;3.35;;;;;;;7.05;100.00;99183.06;5075155;27;20020;-76
2023/03/10 08:30:39;;;;;;;13.95;2.13;;;;;;;7.10;100.00;99194.03;5116537;27;20027;-76
2023/03/10 08:33:08;;;;;;;17.80;2.78;;;;;;;7.15;100.00;99199.47;5073010;27;20016;-76
2023/03/10 08:35:34;;;;;;;17.50;2.65;;;;;;;7.20;100.00;99206.84;5100864;27;20027;-77
2023/03/10 08:38:00;;;;;;;13.60;2.78;;;;;;;7.23;100.00;99223.63;5079284;28;20054;-76
2023/03/10 08:40:26;;;;;;;17.52;2.53;;;;;;;7.29;100.00;99216.06;5083188;27;20035;-76
2023/03/10 08:42:51;;;;;;;14.23;2.33;;;;;;;7.32;100.00;99205.22;5101012;27;20467;-76
2023/03/10 08:45:17;;;;;;;15.90;2.67;;;;;;;7.36;100.00;99206.28;5083417;27;20530;-76
2023/03/10 08:47:42;;;;;;;17.88;2.17;;;;;;;7.44;100.00;99214.97;5097655;28;20055;-76
2023/03/10 08:50:09;;;;;;;14.25;2.33;;;;;;;7.51;100.00;99218.16;5084013;27;20038;-77
2023/03/10 08:52:35;;;;;;;16.02;3.10;;;;;;;7.60;100.00;99210.78;5100963;28;20035;-76
2023/03/10 08:55:00;;;;;;;19.42;2.50;;;;;;;7.71;100.00;99211.41;5083992;27;20019;-76
2023/03/10 08:57:26;;;;;;;17.45;2.92;;;;;;;7.80;100.00;99221.47;5094937;28;20024;-77
2023/03/10 08:59:52;;;;;;;17.38;2.70;;;;;;;7.91;100.00;99222.09;5100344;28;20425;-76
2023/03/10 09:02:19;;;;;;;10.60;2.40;;;;;;;8.04;100.00;99220.41;5084226;28;20410;-76
2023/03/10 09:04:44;;;;;;;15.10;2.45;;;;;;;8.17;100.00;99230.66;5082956;28;20063;-76
2023/03/10 09:07:10;;;;;;;18.20;2.75;;;;;;;8.34;100.00;99231.97;5080738;28;20388;-76
2023/03/10 09:09:35;;;;;;;13.77;2.67;;;;;;;8.43;100.00;99255.03;5087278;28;20050;-77
2023/03/10 09:12:01;;;;;;;17.13;2.58;;;;;;;8.54;100.00;99241.78;5083980;28;20057;-77
2023/03/10 09:14:27;;;;;;;18.48;2.45;;;;;;;8.64;100.00;99264.50;5083458;28;20023;-76
2023/03/10 09:16:52;;;;;;;13.73;2.40;;;;;;;8.71;100.00;99286.22;5081968;28;20498;-77
2023/03/10 09:19:18;;;;;;;15.98;2.40;;;;;;;8.79;100.00;99279.94;5082268;28;20023;-76
2023/03/10 09:21:44;;;;;;;14.23;2.67;;;;;;;8.81;100.00;99287.94;5098723;28;20513;-77
2023/03/10 09:24:09;;;;;;;14.23;1.98;;;;;;;8.82;100.00;99308.94;5079969;28;20386;-76
2023/03/10 09:26:35;;;;;;;12.02;2.20;;;;;;;8.84;100.00;99315.00;5097400;28;20480;-76
2023/03/10 09:29:01;;;;;;;13.15;2.42;;;;;;;8.84;100.00;99324.13;5084021;28;20027;-76
2023/03/10 09:31:34;;;;;;;13.73;2.38;;;;;;;8.88;100.00;99338.97;5083908;28;20052;-76
2023/03/10 09:34:00;;;;;;;17.75;2.10;;;;;;;8.92;100.00;99356.63;5101367;28;20084;-77
2023/03/10 09:36:25;;;;;;;12.20;1.95;;;;;;;8.92;100.00;99377.94;5101313;28;20031;-77
2023/03/10 09:38:51;;;;;;;12.18;2.20;;;;;;;8.98;100.00;99356.50;5100693;28;20080;-76
2023/03/10 09:41:47;;;;;;;13.70;2.25;;;;;;;9.03;100.00;99379.38;5122007;27;20023;-77
2023/03/10 09:44:43;;;;;;;8.13;1.60;;;;;;;9.06;100.00;99378.72;5104574;28;20043;-77
2023/03/10 09:47:09;;;;;;;11.50;1.67;;;;;;;9.10;100.00;99390.00;5135822;28;20055;-76
2023/03/10 09:50:10;;;;;;;11.43;2.00;;;;;;;9.17;100.00;99385.69;5097561;28;20032;-76
2023/03/10 09:52:46;;;;;;;8.43;1.65;;;;;;;9.24;100.00;99410.19;5100514;28;20020;-77
2023/03/10 09:55:22;;;;;;;10.65;1.70;;;;;;;9.29;100.00;99417.56;5083553;28;20024;-77
2023/03/10 09:57:49;;;;;;;12.18;1.88;;;;;;;9.35;100.00;99411.56;5070743;28;20031;-77
2023/03/10 10:00:22;;;;;;;10.80;1.75;;;;;;;9.44;100.00;99419.97;5083585;28;20027;-77
2023/03/10 10:02:48;;;;;;;8.98;1.75;;;;;;;9.50;100.00;99412.34;5088189;27;20046;-77
2023/03/10 10:05:18;;;;;;;12.88;1.92;;;;;;;9.57;100.00;99399.69;5087768;27;20035;-77
2023/03/10 10:07:47;;;;;;;8.82;1.50;;;;;;;9.66;100.00;99408.06;5087997;27;20073;-77
2023/03/10 10:10:17;;;;;;;9.93;1.92;;;;;;;9.72;100.00;99408.75;5069959;27;20425;-77
2023/03/10 10:12:44;;;;;;;14.60;2.50;;;;;;;9.77;100.00;99412.22;5070164;27;20031;-77
2023/03/10 10:15:24;;;;;;;8.52;1.80;;;;;;;9.85;100.00;99421.75;5121051;27;20023;-77
2023/03/10 10:18:04;;;;;;;11.82;2.33;;;;;;;9.93;100.00;99398.00;5086377;27;20575;-77
2023/03/10 10:20:41;;;;;;;8.85;1.85;;;;;;;10.05;100.00;99415.66;5120480;27;20038;-77
2023/03/10 10:23:24;;;;;;;14.07;2.17;;;;;;;10.17;100.00;99445.63;5103368;27;20019;-77
2023/03/10 10:25:49;;;;;;;6.57;2.13;;;;;;;10.32;100.00;99458.31;5104896;27;20472;-77
2023/03/10 10:28:22;;;;;;;9.73;1.83;;;;;;;10.42;100.00;99466.38;5103614;27;20092;-77
2023/03/10 10:30:48;;;;;;;9.45;1.63;;;;;;;10.55;100.00;99461.03;5070114;27;20028;-77
2023/03/10 10:33:14;;;;;;;10.00;2.22;;;;;;;10.65;100.00;99480.19;5097268;27;20034;-77
2023/03/10 10:35:44;;;;;;;9.68;1.73;;;;;;;10.71;100.00;99501.94;5090181;27;20110;-77
2023/03/10 10:38:10;;;;;;;11.50;1.75;;;;;;;10.74;100.00;99487.41;5089757;27;20080;-77
2023/03/10 10:40:59;;;;;;;8.73;1.20;;;;;;;10.81;100.00;99508.34;5120772;28;20024;-77
2023/03/10 10:43:24;;;;;;;10.23;1.73;;;;;;;10.82;100.00;99519.16;5118397;27;20104;-77
2023/03/10 10:46:03;;;;;;;6.25;1.17;;;;;;;10.86;100.00;99509.03;5069378;27;20035;-77
2023/03/10 10:48:45;;;;;;;10.00;1.73;;;;;;;10.88;100.00;99526.19;5082332;27;20447;-77
2023/03/10 10:51:20;;;;;;;7.43;1.35;;;;;;;10.90;100.00;99528.66;5086242;27;20049;-77
2023/03/10 10:53:46;;;;;;;4.25;1.00;;;;;;;10.89;100.00;99525.06;5085916;27;20019;-77
2023/03/10 10:56:16;;;;;;;9.90;1.30;;;;;;;10.91;100.00;99542.22;5099115;27;20028;-77
2023/03/10 10:58:45;;;;;;;4.43;1.40;;;;;;;10.91;100.00;99527.53;5102064;27;20498;-77
2023/03/10 11:01:12;;;;;;;10.35;1.35;;;;;;;10.92;100.00;99551.38;5077293;27;20024;-77
2023/03/10 11:03:42;;;;;;;9.98;1.40;;;;;;;10.92;100.00;99559.69;5119880;27;20027;-77
2023/03/10 11:06:17;;;;;;;10.10;1.50;;;;;;;10.98;100.00;99557.59;5102987;27;20667;-77
2023/03/10 11:08:49;;;;;;;8.27;1.30;;;;;;;11.02;100.00;99553.88;5109902;27;20118;-77
2023/03/10 11:11:59;;;;;;;6.55;1.27;;;;;;;11.09;100.00;99550.66;5069300;27;20467;-77
2023/03/10 11:14:34;;;;;;;8.90;1.40;;;;;;;11.14;100.00;99529.09;5098551;27;20475;-77
2023/03/10 11:17:11;;;;;;;7.70;1.50;;;;;;;11.21;100.00;99531.41;5106370;28;20111;-77
2023/03/10 11:20:12;;;;;;;6.47;1.42;;;;;;;11.23;100.00;99520.78;5086736;27;20026;-77
2023/03/10 11:22:48;;;;;;;9.57;1.42;;;;;;;11.26;100.00;99552.69;5106176;27;20402;-77
2023/03/10 11:25:37;;;;;;;12.57;1.83;;;;;;;11.24;100.00;99549.38;5111344;27;20032;-77
2023/03/10 11:28:24;;;;;;;8.32;1.40;;;;;;;11.27;100.00;99559.88;5075619;28;20027;-77